KLUL/LUL METAR and TAF weather

Enter ICAO airport designator
Station Type Date Time Source
KLUL METAR 2020/09/26 23:55 UTC NOAA

KLUL 262355Z AUTO 13005KT 10SM CLR 23/21 A2994 RMK A02 T02300205 10265 20230 402650177


Station Type Date Time Source
KLUL Decoded METAR 2020/09/26 23:55 UTC NOAA

Station name not available
Sep 26, 2020 - 07:55 PM EDT / 2020.09.26 2355 UTC
Wind: from the SE (130 degrees) at 6 MPH (5 KT):0
Visibility: 10 mile(s):0
Sky conditions: clear
Temperature: 73.4 F (23.0 C)
Dew Point: 68.9 F (20.5 C)
Relative Humidity: 85%
Pressure (altimeter): 29.94 in. Hg (1013 hPa)
ob: KLUL 262355Z AUTO 13005KT 10SM CLR 23/21 A2994 RMK A02 T02300205 10265 20230 402650177
cycle: 0

Station Type Date Time Source
KLUL TAF UTC NOAA

Error!

Example: see airport list